International Virtual Aviation Organisation

Russian Federation and Kazakhstan MCD

 

Карточка аэропорта UAAA

Внимание!
Информация на этой странице в стадии наполнения.
Если вы не увидели какой-то информации, или заметили неточность - пожалуйста сообщите нам!
Спасибо!
Команда RU-STAFF
Название аэропортаАлматы
Название аэропорта (англ.)Almaty
Превышение2238 ft. (682.1 m.)
Координаты43°21.072', 77°1.5960000000001'
Высота перехода600
Эшелон переходаFL070
Коды ответчика3501-3517, 3401-3427
Зона ОрВДАлматы РПИ (UAAA)
Данные METARUAAA 180700Z 00000MPS 2000 BR BKN100 M01/M01 Q1014 R88/3///60 NOSIG
Проноз погоды (TAF)UAAA 180500Z 1806/1906 06004MPS 1200 BR FU BKN011 BKN100 TXM01/1808Z TNM05/1901Z TEMPO 1806/1808 0200 -SN FZFG BKN002 OVC010 TEMPO 1810/1818 0300 FZFG VV002 TEMPO 1818/1906 0200 FZFG VV001
NOTAMshow/hide NOTAM
AWOS   TABLE

Информация о ВПП

ВПП Длина ВПП (м.) Покрытие Курс ВПП Частота ILS
05L4500Бетон51109.1
23R4500Бетон231111.3
05R4400Асфальтобетон51110.3
23L4400Асфальтобетон231108.1

Диспетчерские позиции

Позывной Наименование органа УВД Частота
UAAA_APPАлматы-Подход124.8
UAAA_TWRАлматы-Вышка119.4
UAAA_DELАлматы-Руление121.7
UAAA_R_APPАлматы-Круг120.8



Спутниковое изображение